sensor_id;sensor_type;location;lat;lon;timestamp;pressure;altitude;pressure_sealevel;temperature;humidity
4745;BME280;2386;42.138;24.746;2023-08-21T00:01:02;99647.34;;;27.42;51.86
4745;BME280;2386;42.138;24.746;2023-08-21T00:03:27;99660.34;;;27.38;52.37
4745;BME280;2386;42.138;24.746;2023-08-21T00:05:53;99649.78;;;27.43;52.30
4745;BME280;2386;42.138;24.746;2023-08-21T00:08:18;99653.88;;;27.46;51.73
4745;BME280;2386;42.138;24.746;2023-08-21T00:10:43;99649.13;;;27.26;52.45
4745;BME280;2386;42.138;24.746;2023-08-21T00:13:09;99649.13;;;27.26;52.56
4745;BME280;2386;42.138;24.746;2023-08-21T00:15:37;99659.59;;;27.08;53.17
4745;BME280;2386;42.138;24.746;2023-08-21T00:18:03;99656.94;;;27.11;53.29
4745;BME280;2386;42.138;24.746;2023-08-21T00:20:28;99658.66;;;27.04;53.13
4745;BME280;2386;42.138;24.746;2023-08-21T00:22:54;99658.75;;;26.87;54.04
4745;BME280;2386;42.138;24.746;2023-08-21T00:25:21;99656.91;;;26.70;54.61
4745;BME280;2386;42.138;24.746;2023-08-21T00:27:46;99669.69;;;26.71;54.56
4745;BME280;2386;42.138;24.746;2023-08-21T00:30:12;99667.22;;;26.69;54.88
4745;BME280;2386;42.138;24.746;2023-08-21T00:32:40;99665.59;;;26.68;54.78
4745;BME280;2386;42.138;24.746;2023-08-21T00:35:06;99669.06;;;26.65;55.40
4745;BME280;2386;42.138;24.746;2023-08-21T00:37:31;99668.56;;;26.63;55.32
4745;BME280;2386;42.138;24.746;2023-08-21T00:39:57;99665.50;;;26.56;55.89
4745;BME280;2386;42.138;24.746;2023-08-21T00:42:22;99666.19;;;26.53;55.58
4745;BME280;2386;42.138;24.746;2023-08-21T00:44:47;99652.22;;;26.24;56.12
4745;BME280;2386;42.138;24.746;2023-08-21T00:47:13;99665.50;;;26.18;56.70
4745;BME280;2386;42.138;24.746;2023-08-21T00:49:38;99661.22;;;26.20;57.03
4745;BME280;2386;42.138;24.746;2023-08-21T00:52:10;99663.72;;;26.13;56.87
4745;BME280;2386;42.138;24.746;2023-08-21T00:54:36;99662.91;;;26.13;57.53
4745;BME280;2386;42.138;24.746;2023-08-21T00:57:01;99666.09;;;25.94;58.19
4745;BME280;2386;42.138;24.746;2023-08-21T00:59:28;99666.75;;;25.91;58.76
4745;BME280;2386;42.138;24.746;2023-08-21T01:01:54;99660.88;;;25.84;58.67
4745;BME280;2386;42.138;24.746;2023-08-21T01:04:19;99657.97;;;25.72;58.93
4745;BME280;2386;42.138;24.746;2023-08-21T01:06:47;99661.09;;;25.70;59.05
4745;BME280;2386;42.138;24.746;2023-08-21T01:12:35;99660.09;;;25.49;59.89
4745;BME280;2386;42.138;24.746;2023-08-21T01:15:06;99660.91;;;25.49;59.61
4745;BME280;2386;42.138;24.746;2023-08-21T01:17:36;99667.44;;;25.53;59.57
4745;BME280;2386;42.138;24.746;2023-08-21T01:20:03;99662.56;;;25.50;60.09
4745;BME280;2386;42.138;24.746;2023-08-21T01:22:38;99665.47;;;25.63;58.97
4745;BME280;2386;42.138;24.746;2023-08-21T01:25:04;99666.13;;;25.60;59.02
4745;BME280;2386;42.138;24.746;2023-08-21T01:27:30;99664.84;;;25.66;58.52
4745;BME280;2386;42.138;24.746;2023-08-21T01:29:57;99661.91;;;25.71;58.46
4745;BME280;2386;42.138;24.746;2023-08-21T01:32:32;99663.53;;;25.72;58.00
4745;BME280;2386;42.138;24.746;2023-08-21T01:34:59;99668.28;;;25.71;58.12
4745;BME280;2386;42.138;24.746;2023-08-21T01:37:24;99672.19;;;25.70;58.05
4745;BME280;2386;42.138;24.746;2023-08-21T01:39:51;99661.75;;;25.67;57.92
4745;BME280;2386;42.138;24.746;2023-08-21T01:42:16;99665.31;;;25.59;58.31
4745;BME280;2386;42.138;24.746;2023-08-21T01:44:42;99669.09;;;25.72;57.66
4745;BME280;2386;42.138;24.746;2023-08-21T01:47:11;99666.28;;;25.63;57.54
4745;BME280;2386;42.138;24.746;2023-08-21T01:49:36;99666.13;;;25.60;57.93
4745;BME280;2386;42.138;24.746;2023-08-21T01:52:01;99659.75;;;25.59;57.92
4745;BME280;2386;42.138;24.746;2023-08-21T01:54:27;99669.75;;;25.69;57.45
4745;BME280;2386;42.138;24.746;2023-08-21T01:56:52;99672.84;;;25.76;57.36
4745;BME280;2386;42.138;24.746;2023-08-21T01:59:19;99659.44;;;25.69;57.44
4745;BME280;2386;42.138;24.746;2023-08-21T02:01:45;99661.56;;;25.72;56.86
4745;BME280;2386;42.138;24.746;2023-08-21T02:04:10;99670.22;;;25.79;56.83
4745;BME280;2386;42.138;24.746;2023-08-21T02:06:36;99664.31;;;25.81;56.95
4745;BME280;2386;42.138;24.746;2023-08-21T02:09:01;99666.28;;;25.89;56.85
4745;BME280;2386;42.138;24.746;2023-08-21T02:11:26;99670.69;;;25.90;56.96
4745;BME280;2386;42.138;24.746;2023-08-21T02:13:52;99667.28;;;25.76;57.45
4745;BME280;2386;42.138;24.746;2023-08-21T02:16:17;99660.88;;;25.84;56.91
4745;BME280;2386;42.138;24.746;2023-08-21T02:18:42;99664.50;;;25.76;57.90
4745;BME280;2386;42.138;24.746;2023-08-21T02:21:08;99647.81;;;25.76;58.00
4745;BME280;2386;42.138;24.746;2023-08-21T02:23:33;99655.19;;;25.80;57.52
4745;BME280;2386;42.138;24.746;2023-08-21T02:25:59;99659.38;;;25.95;57.74
4745;BME280;2386;42.138;24.746;2023-08-21T02:28:24;99647.59;;;25.98;57.41
4745;BME280;2386;42.138;24.746;2023-08-21T02:30:49;99648.22;;;26.04;57.49
4745;BME280;2386;42.138;24.746;2023-08-21T02:33:15;99642.78;;;26.07;57.74
4745;BME280;2386;42.138;24.746;2023-08-21T02:35:40;99655.19;;;26.18;56.58
4745;BME280;2386;42.138;24.746;2023-08-21T02:38:06;99651.25;;;26.19;56.21
4745;BME280;2386;42.138;24.746;2023-08-21T02:40:31;99659.25;;;26.21;56.62
4745;BME280;2386;42.138;24.746;2023-08-21T02:42:57;99653.38;;;26.23;56.52
4745;BME280;2386;42.138;24.746;2023-08-21T02:45:23;99653.03;;;26.24;56.30
4745;BME280;2386;42.138;24.746;2023-08-21T02:47:48;99651.44;;;26.14;57.03
4745;BME280;2386;42.138;24.746;2023-08-21T02:50:14;99658.78;;;26.19;57.73
4745;BME280;2386;42.138;24.746;2023-08-21T02:52:39;99661.59;;;26.10;56.99
4745;BME280;2386;42.138;24.746;2023-08-21T02:55:05;99660.81;;;26.01;56.97
4745;BME280;2386;42.138;24.746;2023-08-21T02:57:31;99651.81;;;26.04;57.66
4745;BME280;2386;42.138;24.746;2023-08-21T02:59:56;99651.47;;;26.06;57.38
4745;BME280;2386;42.138;24.746;2023-08-21T03:02:22;99649.56;;;25.98;57.03
4745;BME280;2386;42.138;24.746;2023-08-21T03:04:48;99658.81;;;26.10;57.41
4745;BME280;2386;42.138;24.746;2023-08-21T03:07:14;99652.94;;;26.03;57.18
4745;BME280;2386;42.138;24.746;2023-08-21T03:09:40;99651.38;;;25.94;57.07
4745;BME280;2386;42.138;24.746;2023-08-21T03:12:07;99648.25;;;25.95;57.16
4745;BME280;2386;42.138;24.746;2023-08-21T03:14:32;99646.00;;;25.89;57.86
4745;BME280;2386;42.138;24.746;2023-08-21T03:16:58;99658.28;;;25.79;57.92
4745;BME280;2386;42.138;24.746;2023-08-21T03:19:23;99653.38;;;25.84;57.88
4745;BME280;2386;42.138;24.746;2023-08-21T03:21:48;99658.44;;;25.82;57.92
4745;BME280;2386;42.138;24.746;2023-08-21T03:24:14;99659.44;;;25.61;58.79
4745;BME280;2386;42.138;24.746;2023-08-21T03:26:39;99654.03;;;25.73;58.48
4745;BME280;2386;42.138;24.746;2023-08-21T03:29:05;99667.44;;;25.62;58.52
4745;BME280;2386;42.138;24.746;2023-08-21T03:31:30;99660.25;;;25.52;59.52
4745;BME280;2386;42.138;24.746;2023-08-21T03:33:56;99665.19;;;25.64;58.52
4745;BME280;2386;42.138;24.746;2023-08-21T03:36:23;99670.53;;;25.61;59.12
4745;BME280;2386;42.138;24.746;2023-08-21T03:38:57;99663.84;;;25.62;58.88
4745;BME280;2386;42.138;24.746;2023-08-21T03:41:22;99662.88;;;25.58;59.07
4745;BME280;2386;42.138;24.746;2023-08-21T03:43:48;99655.88;;;25.43;59.06
4745;BME280;2386;42.138;24.746;2023-08-21T03:46:13;99663.22;;;25.39;59.62
4745;BME280;2386;42.138;24.746;2023-08-21T03:48:38;99663.88;;;25.44;59.26
4745;BME280;2386;42.138;24.746;2023-08-21T03:51:04;99663.69;;;25.41;59.46
4745;BME280;2386;42.138;24.746;2023-08-21T03:53:29;99652.59;;;25.41;60.11
4745;BME280;2386;42.138;24.746;2023-08-21T03:55:54;99666.00;;;25.39;60.24
4745;BME280;2386;42.138;24.746;2023-08-21T03:58:20;99669.91;;;25.38;59.58
4745;BME280;2386;42.138;24.746;2023-08-21T04:00:45;99668.59;;;25.44;59.70
4745;BME280;2386;42.138;24.746;2023-08-21T04:03:11;99660.59;;;25.42;59.77
4745;BME280;2386;42.138;24.746;2023-08-21T04:05:37;99675.47;;;25.46;59.80
4745;BME280;2386;42.138;24.746;2023-08-21T04:08:02;99665.66;;;25.49;59.62
4745;BME280;2386;42.138;24.746;2023-08-21T04:10:28;99663.84;;;25.62;59.41
4745;BME280;2386;42.138;24.746;2023-08-21T04:12:53;99659.63;;;25.64;59.24
4745;BME280;2386;42.138;24.746;2023-08-21T04:15:19;99672.03;;;25.75;58.79
4745;BME280;2386;42.138;24.746;2023-08-21T04:17:44;99670.69;;;25.81;57.58
4745;BME280;2386;42.138;24.746;2023-08-21T04:20:10;99676.25;;;25.90;58.98
4745;BME280;2386;42.138;24.746;2023-08-21T04:22:35;99670.84;;;25.94;58.60
4745;BME280;2386;42.138;24.746;2023-08-21T04:25:01;99668.00;;;26.02;56.63
4745;BME280;2386;42.138;24.746;2023-08-21T04:27:26;99674.53;;;26.06;55.88
4745;BME280;2386;42.138;24.746;2023-08-21T04:29:53;99665.03;;;26.07;55.43
4745;BME280;2386;42.138;24.746;2023-08-21T04:32:18;99675.13;;;26.20;55.60
4745;BME280;2386;42.138;24.746;2023-08-21T04:34:44;99679.88;;;26.20;55.36
4745;BME280;2386;42.138;24.746;2023-08-21T04:37:09;99675.13;;;26.20;55.35
4745;BME280;2386;42.138;24.746;2023-08-21T04:39:34;99678.22;;;26.28;55.27
4745;BME280;2386;42.138;24.746;2023-08-21T04:42:01;99675.75;;;26.35;55.89
4745;BME280;2386;42.138;24.746;2023-08-21T04:44:27;99680.66;;;26.38;54.50
4745;BME280;2386;42.138;24.746;2023-08-21T04:46:52;99683.97;;;26.31;54.37
4745;BME280;2386;42.138;24.746;2023-08-21T04:49:18;99697.53;;;26.33;54.86
4745;BME280;2386;42.138;24.746;2023-08-21T04:51:43;99692.16;;;26.19;55.43
4745;BME280;2386;42.138;24.746;2023-08-21T04:54:08;99689.22;;;26.15;56.19
4745;BME280;2386;42.138;24.746;2023-08-21T04:56:34;99692.84;;;26.07;56.48
4745;BME280;2386;42.138;24.746;2023-08-21T04:58:59;99694.97;;;26.02;57.15
4745;BME280;2386;42.138;24.746;2023-08-21T05:01:25;99692.69;;;26.04;57.21
4745;BME280;2386;42.138;24.746;2023-08-21T05:03:51;99687.28;;;26.07;56.67
4745;BME280;2386;42.138;24.746;2023-08-21T05:06:16;99685.94;;;26.13;56.89
4745;BME280;2386;42.138;24.746;2023-08-21T05:08:42;99687.28;;;26.07;57.41
4745;BME280;2386;42.138;24.746;2023-08-21T05:11:07;99689.25;;;26.07;57.56
4745;BME280;2386;42.138;24.746;2023-08-21T05:13:33;99696.09;;;26.09;57.75
4745;BME280;2386;42.138;24.746;2023-08-21T05:15:58;99681.22;;;26.14;57.49
4745;BME280;2386;42.138;24.746;2023-08-21T05:18:24;99681.72;;;26.07;57.98
4745;BME280;2386;42.138;24.746;2023-08-21T05:20:53;99684.00;;;26.14;58.06
4745;BME280;2386;42.138;24.746;2023-08-21T05:23:19;99699.53;;;26.15;58.15
4745;BME280;2386;42.138;24.746;2023-08-21T05:25:45;99688.84;;;26.26;57.67
4745;BME280;2386;42.138;24.746;2023-08-21T05:28:10;99695.19;;;26.43;57.36
4745;BME280;2386;42.138;24.746;2023-08-21T05:30:36;99698.59;;;26.49;57.00
4745;BME280;2386;42.138;24.746;2023-08-21T05:33:02;99699.19;;;26.63;56.90
4745;BME280;2386;42.138;24.746;2023-08-21T05:35:28;99695.53;;;26.71;56.11
4745;BME280;2386;42.138;24.746;2023-08-21T05:37:54;99702.63;;;26.90;56.13
4745;BME280;2386;42.138;24.746;2023-08-21T05:40:19;99697.19;;;26.93;55.02
4745;BME280;2386;42.138;24.746;2023-08-21T05:42:45;99696.47;;;27.05;54.85
4745;BME280;2386;42.138;24.746;2023-08-21T05:45:10;99705.38;;;27.19;54.62
4745;BME280;2386;42.138;24.746;2023-08-21T05:47:35;99707.91;;;27.33;54.77
4745;BME280;2386;42.138;24.746;2023-08-21T05:50:01;99702.25;;;27.41;53.03
4745;BME280;2386;42.138;24.746;2023-08-21T05:52:27;99706.53;;;27.60;52.85
4745;BME280;2386;42.138;24.746;2023-08-21T05:54:52;99705.75;;;27.71;51.87
4745;BME280;2386;42.138;24.746;2023-08-21T05:57:17;99697.78;;;27.82;51.32
4745;BME280;2386;42.138;24.746;2023-08-21T05:59:44;99703.53;;;27.98;50.71
4745;BME280;2386;42.138;24.746;2023-08-21T06:02:11;99706.00;;;28.11;48.36
4745;BME280;2386;42.138;24.746;2023-08-21T06:04:39;99703.47;;;28.31;48.78
4745;BME280;2386;42.138;24.746;2023-08-21T06:07:04;99715.59;;;28.47;47.28
4745;BME280;2386;42.138;24.746;2023-08-21T06:09:29;99709.66;;;28.61;46.75
4745;BME280;2386;42.138;24.746;2023-08-21T06:11:56;99712.84;;;28.84;46.28
4745;BME280;2386;42.138;24.746;2023-08-21T06:14:22;99704.69;;;28.91;45.89
4745;BME280;2386;42.138;24.746;2023-08-21T06:16:54;99714.41;;;29.09;45.86
4745;BME280;2386;42.138;24.746;2023-08-21T06:19:20;99707.53;;;29.19;45.88
4745;BME280;2386;42.138;24.746;2023-08-21T06:21:45;99709.00;;;29.28;44.82
4745;BME280;2386;42.138;24.746;2023-08-21T06:24:10;99718.53;;;29.39;44.74
4745;BME280;2386;42.138;24.746;2023-08-21T06:29:57;99718.47;;;29.64;43.75
4745;BME280;2386;42.138;24.746;2023-08-21T06:32:22;99725.63;;;29.77;43.32
4745;BME280;2386;42.138;24.746;2023-08-21T06:34:48;99721.38;;;29.83;43.46
4745;BME280;2386;42.138;24.746;2023-08-21T06:37:13;99722.50;;;29.94;43.46
4745;BME280;2386;42.138;24.746;2023-08-21T06:39:39;99720.38;;;30.03;43.45
4745;BME280;2386;42.138;24.746;2023-08-21T06:42:04;99722.66;;;30.14;43.20
4745;BME280;2386;42.138;24.746;2023-08-21T06:44:30;99721.22;;;30.20;42.59
4745;BME280;2386;42.138;24.746;2023-08-21T06:46:55;99718.63;;;30.27;42.25
4745;BME280;2386;42.138;24.746;2023-08-21T06:49:21;99723.69;;;30.37;41.46
4745;BME280;2386;42.138;24.746;2023-08-21T06:51:46;99724.69;;;30.45;41.51
4745;BME280;2386;42.138;24.746;2023-08-21T06:54:11;99721.75;;;30.57;41.80
4745;BME280;2386;42.138;24.746;2023-08-21T06:56:37;99717.53;;;30.63;40.57
4745;BME280;2386;42.138;24.746;2023-08-21T06:59:02;99708.94;;;30.71;40.26
4745;BME280;2386;42.138;24.746;2023-08-21T07:01:28;99718.69;;;30.78;39.78
4745;BME280;2386;42.138;24.746;2023-08-21T07:03:54;99721.66;;;30.85;40.09
4745;BME280;2386;42.138;24.746;2023-08-21T07:06:19;99716.16;;;30.88;40.63
4745;BME280;2386;42.138;24.746;2023-08-21T07:08:45;99725.16;;;30.97;40.17
4745;BME280;2386;42.138;24.746;2023-08-21T07:11:10;99724.25;;;31.09;40.02
4745;BME280;2386;42.138;24.746;2023-08-21T07:13:37;99720.50;;;31.21;39.94
4745;BME280;2386;42.138;24.746;2023-08-21T07:16:03;99728.63;;;31.26;40.03
4745;BME280;2386;42.138;24.746;2023-08-21T07:18:33;99712.09;;;31.21;39.93
4745;BME280;2386;42.138;24.746;2023-08-21T07:21:00;99707.53;;;31.32;40.89
4745;BME280;2386;42.138;24.746;2023-08-21T07:23:26;99712.25;;;31.28;40.16
4745;BME280;2386;42.138;24.746;2023-08-21T07:25:53;99706.88;;;31.38;39.16
4745;BME280;2386;42.138;24.746;2023-08-21T07:28:18;99709.03;;;31.45;39.49
4745;BME280;2386;42.138;24.746;2023-08-21T07:30:44;99717.66;;;31.56;38.98
4745;BME280;2386;42.138;24.746;2023-08-21T07:33:09;99710.13;;;31.60;38.70
4745;BME280;2386;42.138;24.746;2023-08-21T07:35:35;99710.09;;;31.76;39.09
4745;BME280;2386;42.138;24.746;2023-08-21T07:38:01;99707.72;;;31.78;38.79
4745;BME280;2386;42.138;24.746;2023-08-21T07:40:26;99711.09;;;31.87;39.26
4745;BME280;2386;42.138;24.746;2023-08-21T07:42:52;99719.91;;;31.85;38.84
4745;BME280;2386;42.138;24.746;2023-08-21T07:45:17;99728.09;;;31.94;37.74
4745;BME280;2386;42.138;24.746;2023-08-21T07:47:42;99714.97;;;32.01;37.53
4745;BME280;2386;42.138;24.746;2023-08-21T07:50:08;99711.47;;;32.08;37.02
4745;BME280;2386;42.138;24.746;2023-08-21T07:52:35;99706.97;;;32.23;37.01
4745;BME280;2386;42.138;24.746;2023-08-21T07:55:00;99698.81;;;32.18;36.96
4745;BME280;2386;42.138;24.746;2023-08-21T07:57:26;99707.59;;;32.36;37.08
4745;BME280;2386;42.138;24.746;2023-08-21T07:59:52;99706.34;;;32.33;36.83
4745;BME280;2386;42.138;24.746;2023-08-21T08:02:17;99699.97;;;32.36;35.98
4745;BME280;2386;42.138;24.746;2023-08-21T08:04:43;99703.34;;;32.45;35.63
4745;BME280;2386;42.138;24.746;2023-08-21T08:07:09;99697.97;;;32.59;35.93
4745;BME280;2386;42.138;24.746;2023-08-21T08:09:37;99700.34;;;32.57;35.60
4745;BME280;2386;42.138;24.746;2023-08-21T08:12:06;99704.09;;;32.65;35.21
4745;BME280;2386;42.138;24.746;2023-08-21T08:14:32;99698.16;;;32.74;34.92
4745;BME280;2386;42.138;24.746;2023-08-21T08:16:57;99696.53;;;32.73;34.54
4745;BME280;2386;42.138;24.746;2023-08-21T08:19:23;99694.31;;;32.82;33.97
4745;BME280;2386;42.138;24.746;2023-08-21T08:21:48;99690.41;;;32.90;34.45
4745;BME280;2386;42.138;24.746;2023-08-21T08:24:14;99673.66;;;32.97;34.39
4745;BME280;2386;42.138;24.746;2023-08-21T08:26:39;99681.88;;;33.09;34.38
4745;BME280;2386;42.138;24.746;2023-08-21T08:29:06;99696.44;;;33.18;34.18
4745;BME280;2386;42.138;24.746;2023-08-21T08:31:34;99686.06;;;33.22;33.48
4745;BME280;2386;42.138;24.746;2023-08-21T08:34:05;99670.03;;;33.26;35.09
4745;BME280;2386;42.138;24.746;2023-08-21T08:36:30;99686.28;;;33.37;36.36
4745;BME280;2386;42.138;24.746;2023-08-21T08:38:55;99661.19;;;33.24;33.99
4745;BME280;2386;42.138;24.746;2023-08-21T08:41:30;99675.06;;;33.40;35.37
4745;BME280;2386;42.138;24.746;2023-08-21T08:43:59;99680.66;;;33.37;36.96
4745;BME280;2386;42.138;24.746;2023-08-21T08:46:44;99666.94;;;33.32;33.60
4745;BME280;2386;42.138;24.746;2023-08-21T08:49:11;99657.34;;;33.36;34.71
4745;BME280;2386;42.138;24.746;2023-08-21T08:51:37;99665.84;;;33.43;33.68
4745;BME280;2386;42.138;24.746;2023-08-21T08:54:05;99666.69;;;33.47;33.72
4745;BME280;2386;42.138;24.746;2023-08-21T08:56:31;99661.09;;;33.51;33.96
4745;BME280;2386;42.138;24.746;2023-08-21T08:58:57;99657.09;;;33.52;33.29
4745;BME280;2386;42.138;24.746;2023-08-21T09:01:22;99652.28;;;33.52;33.92
4745;BME280;2386;42.138;24.746;2023-08-21T09:03:47;99650.00;;;33.28;35.30
4745;BME280;2386;42.138;24.746;2023-08-21T09:06:15;99659.91;;;33.52;34.08
4745;BME280;2386;42.138;24.746;2023-08-21T09:08:53;99649.56;;;33.59;33.74
4745;BME280;2386;42.138;24.746;2023-08-21T09:11:20;99649.22;;;33.64;33.67
4745;BME280;2386;42.138;24.746;2023-08-21T09:13:45;99645.03;;;33.85;34.73
4745;BME280;2386;42.138;24.746;2023-08-21T09:16:11;99645.91;;;33.92;34.44
4745;BME280;2386;42.138;24.746;2023-08-21T09:18:46;99636.34;;;34.01;32.86
4745;BME280;2386;42.138;24.746;2023-08-21T09:21:14;99638.00;;;34.05;32.82
4745;BME280;2386;42.138;24.746;2023-08-21T09:23:40;99625.22;;;34.15;32.62
4745;BME280;2386;42.138;24.746;2023-08-21T09:26:06;99624.50;;;34.28;32.58
4745;BME280;2386;42.138;24.746;2023-08-21T09:28:31;99627.75;;;34.31;32.72
4745;BME280;2386;42.138;24.746;2023-08-21T09:30:57;99622.97;;;34.35;33.03
4745;BME280;2386;42.138;24.746;2023-08-21T09:33:24;99620.53;;;34.33;32.85
4745;BME280;2386;42.138;24.746;2023-08-21T09:35:53;99616.94;;;34.36;32.21
4745;BME280;2386;42.138;24.746;2023-08-21T09:38:18;99598.00;;;34.33;32.03
4745;BME280;2386;42.138;24.746;2023-08-21T09:40:50;99606.91;;;34.42;32.57
4745;BME280;2386;42.138;24.746;2023-08-21T09:43:17;99602.59;;;34.55;31.63
4745;BME280;2386;42.138;24.746;2023-08-21T09:45:46;99606.28;;;34.67;31.17
4745;BME280;2386;42.138;24.746;2023-08-21T09:48:11;99593.53;;;34.83;31.97
4745;BME280;2386;42.138;24.746;2023-08-21T09:50:38;99604.84;;;34.90;32.17
4745;BME280;2386;42.138;24.746;2023-08-21T09:53:06;99603.28;;;35.07;31.50
4745;BME280;2386;42.138;24.746;2023-08-21T09:55:32;99605.75;;;35.16;30.14
4745;BME280;2386;42.138;24.746;2023-08-21T09:58:07;99597.25;;;35.09;30.93
4745;BME280;2386;42.138;24.746;2023-08-21T10:03:57;99590.41;;;35.13;30.49
4745;BME280;2386;42.138;24.746;2023-08-21T10:06:26;99583.91;;;35.02;30.65
4745;BME280;2386;42.138;24.746;2023-08-21T10:08:53;99583.94;;;35.09;30.11
4745;BME280;2386;42.138;24.746;2023-08-21T10:11:20;99586.41;;;35.18;30.32
4745;BME280;2386;42.138;24.746;2023-08-21T10:13:46;99580.06;;;35.39;29.87
4745;BME280;2386;42.138;24.746;2023-08-21T10:16:12;99574.47;;;35.56;29.71
4745;BME280;2386;42.138;24.746;2023-08-21T10:18:43;99569.22;;;35.76;30.76
4745;BME280;2386;42.138;24.746;2023-08-21T10:23:43;99565.22;;;35.99;30.02
4745;BME280;2386;42.138;24.746;2023-08-21T10:26:11;99566.03;;;36.03;29.08
4745;BME280;2386;42.138;24.746;2023-08-21T10:28:52;99568.84;;;35.99;28.29
4745;BME280;2386;42.138;24.746;2023-08-21T10:33:56;99568.00;;;35.56;28.21
4745;BME280;2386;42.138;24.746;2023-08-21T10:39:20;99565.50;;;35.30;28.70
4745;BME280;2386;42.138;24.746;2023-08-21T10:42:54;99567.47;;;35.22;28.87
4745;BME280;2386;42.138;24.746;2023-08-21T10:44:53;99556.13;;;35.04;29.57
4745;BME280;2386;42.138;24.746;2023-08-21T10:47:31;99554.88;;;34.95;29.49
4745;BME280;2386;42.138;24.746;2023-08-21T10:50:00;99549.22;;;34.84;29.38
4745;BME280;2386;42.138;24.746;2023-08-21T10:52:31;99545.63;;;34.90;29.57
4745;BME280;2386;42.138;24.746;2023-08-21T10:54:59;99542.81;;;35.01;29.79
4745;BME280;2386;42.138;24.746;2023-08-21T10:57:26;99542.44;;;35.06;29.24
4745;BME280;2386;42.138;24.746;2023-08-21T11:02:18;99542.97;;;35.37;29.39
4745;BME280;2386;42.138;24.746;2023-08-21T11:04:44;99547.03;;;35.46;28.81
4745;BME280;2386;42.138;24.746;2023-08-21T11:07:10;99555.13;;;35.62;28.85
4745;BME280;2386;42.138;24.746;2023-08-21T11:09:36;99560.75;;;35.62;28.58
4745;BME280;2386;42.138;24.746;2023-08-21T11:12:07;99549.06;;;35.60;28.08
4745;BME280;2386;42.138;24.746;2023-08-21T11:14:32;99555.50;;;35.71;28.29
4745;BME280;2386;42.138;24.746;2023-08-21T11:16:59;99537.38;;;35.83;28.22
4745;BME280;2386;42.138;24.746;2023-08-21T11:19:24;99540.63;;;35.99;28.38
4745;BME280;2386;42.138;24.746;2023-08-21T11:21:53;99546.66;;;36.12;28.17
4745;BME280;2386;42.138;24.746;2023-08-21T11:24:18;99540.19;;;36.15;27.82
4745;BME280;2386;42.138;24.746;2023-08-21T11:26:44;99539.41;;;36.14;27.64
4745;BME280;2386;42.138;24.746;2023-08-21T11:29:10;99535.75;;;36.10;26.97
4745;BME280;2386;42.138;24.746;2023-08-21T11:34:57;99542.22;;;36.11;27.14
4745;BME280;2386;42.138;24.746;2023-08-21T11:37:25;99537.38;;;36.11;26.73
4745;BME280;2386;42.138;24.746;2023-08-21T11:39:53;99536.97;;;36.20;27.53
4745;BME280;2386;42.138;24.746;2023-08-21T11:42:31;99542.22;;;36.36;27.69
4745;BME280;2386;42.138;24.746;2023-08-21T11:45:00;99537.31;;;36.47;27.66
4745;BME280;2386;42.138;24.746;2023-08-21T11:47:30;99534.44;;;36.65;27.46
4745;BME280;2386;42.138;24.746;2023-08-21T11:49:56;99526.81;;;36.47;27.30
4745;BME280;2386;42.138;24.746;2023-08-21T11:52:23;99532.88;;;36.53;27.79
4745;BME280;2386;42.138;24.746;2023-08-21T11:54:53;99536.97;;;36.38;27.33
4745;BME280;2386;42.138;24.746;2023-08-21T11:57:20;99526.06;;;36.36;27.41
4745;BME280;2386;42.138;24.746;2023-08-21T11:59:53;99537.38;;;36.26;26.82
4745;BME280;2386;42.138;24.746;2023-08-21T12:02:27;99533.72;;;36.25;26.85
4745;BME280;2386;42.138;24.746;2023-08-21T12:05:05;99540.19;;;36.22;26.16
4745;BME280;2386;42.138;24.746;2023-08-21T12:07:34;99530.09;;;36.17;26.39
4745;BME280;2386;42.138;24.746;2023-08-21T12:10:01;99530.91;;;36.18;26.56
4745;BME280;2386;42.138;24.746;2023-08-21T12:12:26;99526.09;;;36.04;26.77
4745;BME280;2386;42.138;24.746;2023-08-21T12:14:52;99528.91;;;35.86;27.62
4745;BME280;2386;42.138;24.746;2023-08-21T12:17:17;99526.09;;;35.86;27.82
4745;BME280;2386;42.138;24.746;2023-08-21T12:19:42;99523.63;;;35.78;27.75
4745;BME280;2386;42.138;24.746;2023-08-21T12:22:09;99520.00;;;35.77;27.94
4745;BME280;2386;42.138;24.746;2023-08-21T12:27:56;99505.88;;;35.70;27.14
4745;BME280;2386;42.138;24.746;2023-08-21T12:30:21;99513.59;;;35.80;27.18
4745;BME280;2386;42.138;24.746;2023-08-21T12:32:47;99501.47;;;35.87;27.29
4745;BME280;2386;42.138;24.746;2023-08-21T12:35:17;99508.72;;;36.20;26.91
4745;BME280;2386;42.138;24.746;2023-08-21T12:37:43;99494.94;;;36.43;26.76
4745;BME280;2386;42.138;24.746;2023-08-21T12:40:08;99505.16;;;37.80;25.73
4745;BME280;2386;42.138;24.746;2023-08-21T12:42:34;99507.59;;;40.02;22.90
4745;BME280;2386;42.138;24.746;2023-08-21T12:44:59;99506.53;;;42.16;21.61
4745;BME280;2386;42.138;24.746;2023-08-21T12:47:27;99499.78;;;44.33;19.64
4745;BME280;2386;42.138;24.746;2023-08-21T12:49:52;99498.44;;;46.10;18.65
4745;BME280;2386;42.138;24.746;2023-08-21T12:52:17;99507.75;;;47.63;17.01
4745;BME280;2386;42.138;24.746;2023-08-21T12:54:43;99504.06;;;48.72;15.96
4745;BME280;2386;42.138;24.746;2023-08-21T12:57:09;99506.66;;;49.15;15.59
4745;BME280;2386;42.138;24.746;2023-08-21T12:59:36;99513.31;;;49.21;14.72
4745;BME280;2386;42.138;24.746;2023-08-21T13:02:01;99500.75;;;47.55;16.39
4745;BME280;2386;42.138;24.746;2023-08-21T13:04:27;99507.81;;;45.83;17.17
4745;BME280;2386;42.138;24.746;2023-08-21T13:06:53;99499.28;;;44.47;18.52
4745;BME280;2386;42.138;24.746;2023-08-21T13:09:18;99498.75;;;42.61;19.16
4745;BME280;2386;42.138;24.746;2023-08-21T13:11:43;99488.19;;;41.52;19.69
4745;BME280;2386;42.138;24.746;2023-08-21T13:14:09;99504.47;;;40.59;20.81
4745;BME280;2386;42.138;24.746;2023-08-21T13:16:34;99488.53;;;39.75;21.95
4745;BME280;2386;42.138;24.746;2023-08-21T13:19:00;99485.25;;;38.96;22.56
4745;BME280;2386;42.138;24.746;2023-08-21T13:21:25;99481.59;;;38.65;22.08
4745;BME280;2386;42.138;24.746;2023-08-21T13:23:50;99474.56;;;39.07;22.09
4745;BME280;2386;42.138;24.746;2023-08-21T13:26:16;99482.34;;;40.67;20.57
4745;BME280;2386;42.138;24.746;2023-08-21T13:28:41;99486.75;;;42.38;19.20
4745;BME280;2386;42.138;24.746;2023-08-21T13:31:07;99476.97;;;44.07;18.07
4745;BME280;2386;42.138;24.746;2023-08-21T13:33:44;99476.31;;;45.52;16.86